Time;durP1;ratioP1;P1;durP2;ratioP2;P2;SDS_P1;SDS_P2;PMS_P1;PMS_P2;Temp;Humidity;BMP_temperature;BMP_pressure;BME280_temperature;BME280_humidity;BME280_pressure;Samples;Min_cycle;Max_cycle;Signal;HPM_P1;HPM_P2
2022/07/23 00:01:41;;;;;;;5.35;1.90;;;;;;;;;;4940472;28;20470;-88
2022/07/23 00:04:07;;;;;;;15.73;2.05;;;;;;;;;;4931232;29;20110;-88
2022/07/23 00:06:33;;;;;;;7.18;2.30;;;;;;;;;;4943224;28;20142;-88
2022/07/23 00:09:01;;;;;;;7.35;2.58;;;;;;;;;;4947123;28;20104;-88
2022/07/23 00:11:27;;;;;;;7.30;3.35;;;;;;;;;;4914212;29;20031;-87
2022/07/23 00:13:54;;;;;;;5.50;2.20;;;;;;;;;;4943241;28;20106;-87
2022/07/23 00:16:21;;;;;;;10.65;2.80;;;;;;;;;;4946550;28;20027;-87
2022/07/23 00:18:47;;;;;;;5.47;2.17;;;;;;;;;;4948657;28;20039;-88
2022/07/23 00:21:13;;;;;;;5.05;2.53;;;;;;;;;;4930206;29;20051;-88
2022/07/23 00:23:39;;;;;;;7.45;2.75;;;;;;;;;;4944271;28;20046;-87
2022/07/23 00:26:07;;;;;;;5.68;2.72;;;;;;;;;;4944894;28;20039;-88
2022/07/23 00:28:33;;;;;;;5.90;2.70;;;;;;;;;;4943208;28;20032;-87
2022/07/23 00:30:59;;;;;;;9.68;3.20;;;;;;;;;;4944569;28;20464;-87
2022/07/23 00:33:25;;;;;;;8.60;3.17;;;;;;;;;;4949377;28;20122;-87
2022/07/23 00:35:51;;;;;;;8.00;3.58;;;;;;;;;;4930773;29;20074;-87
2022/07/23 00:38:17;;;;;;;7.30;3.78;;;;;;;;;;4931820;29;20496;-88
2022/07/23 00:40:43;;;;;;;6.50;3.30;;;;;;;;;;4941781;28;20038;-88
2022/07/23 00:43:09;;;;;;;6.75;3.38;;;;;;;;;;4946873;28;20032;-88
2022/07/23 00:45:35;;;;;;;6.78;3.80;;;;;;;;;;4929766;29;20713;-88
2022/07/23 00:48:02;;;;;;;6.13;3.47;;;;;;;;;;4915043;29;20480;-87
2022/07/23 00:50:28;;;;;;;7.38;3.55;;;;;;;;;;4948263;28;20103;-88
2022/07/23 00:52:54;;;;;;;22.10;3.67;;;;;;;;;;4943487;28;20518;-88
2022/07/23 00:55:20;;;;;;;12.30;2.85;;;;;;;;;;4927328;29;20066;-88
2022/07/23 00:57:47;;;;;;;5.60;3.03;;;;;;;;;;4945416;28;20032;-88
2022/07/23 01:00:14;;;;;;;9.70;3.25;;;;;;;;;;4942198;28;20163;-88
2022/07/23 01:02:40;;;;;;;7.85;3.30;;;;;;;;;;4941250;28;20039;-88
2022/07/23 01:05:07;;;;;;;12.27;4.10;;;;;;;;;;4944856;28;20481;-87
2022/07/23 01:07:33;;;;;;;13.18;3.40;;;;;;;;;;4936820;28;20115;-87
2022/07/23 01:09:59;;;;;;;15.98;3.83;;;;;;;;;;4942120;28;20028;-87
2022/07/23 01:12:26;;;;;;;7.38;3.58;;;;;;;;;;4946342;28;20059;-87
2022/07/23 01:14:56;;;;;;;6.50;3.72;;;;;;;;;;4914316;28;20742;-88
2022/07/23 01:17:22;;;;;;;9.35;3.78;;;;;;;;;;4940924;28;20480;-87
2022/07/23 01:19:51;;;;;;;8.57;3.97;;;;;;;;;;4945978;28;20043;-87
2022/07/23 01:22:21;;;;;;;6.90;3.75;;;;;;;;;;4937853;28;20036;-87
2022/07/23 01:24:47;;;;;;;7.88;3.42;;;;;;;;;;4929541;29;20032;-87
2022/07/23 01:27:13;;;;;;;8.25;3.97;;;;;;;;;;4922852;29;20027;-88
2022/07/23 01:29:39;;;;;;;15.40;3.97;;;;;;;;;;4927126;29;20028;-88
2022/07/23 01:32:06;;;;;;;8.23;3.55;;;;;;;;;;4943684;28;20031;-88
2022/07/23 01:34:32;;;;;;;6.78;3.85;;;;;;;;;;4925739;29;20396;-88
2022/07/23 01:36:58;;;;;;;10.60;3.50;;;;;;;;;;4944768;28;20019;-88
2022/07/23 01:39:24;;;;;;;7.15;3.47;;;;;;;;;;4941746;28;20057;-88
2022/07/23 01:41:50;;;;;;;7.40;3.40;;;;;;;;;;4947428;28;20501;-88
2022/07/23 01:44:16;;;;;;;8.13;3.55;;;;;;;;;;4931022;29;20136;-88
2022/07/23 01:46:42;;;;;;;14.75;3.20;;;;;;;;;;4945077;28;20028;-88
2022/07/23 01:49:08;;;;;;;9.25;3.53;;;;;;;;;;4947200;28;20046;-88
2022/07/23 01:51:34;;;;;;;8.60;3.40;;;;;;;;;;4946965;28;20035;-87
2022/07/23 01:54:00;;;;;;;4.95;3.17;;;;;;;;;;4950485;28;20142;-88
2022/07/23 01:56:26;;;;;;;6.82;2.97;;;;;;;;;;4931314;29;20512;-88
2022/07/23 01:58:52;;;;;;;11.00;3.20;;;;;;;;;;4944908;28;20122;-87
2022/07/23 02:01:18;;;;;;;9.93;3.38;;;;;;;;;;4947616;28;20048;-87
2022/07/23 02:03:44;;;;;;;10.05;3.45;;;;;;;;;;4942475;28;20512;-89
2022/07/23 02:06:10;;;;;;;8.00;3.50;;;;;;;;;;4945776;28;21524;-87
2022/07/23 02:08:36;;;;;;;4.97;3.17;;;;;;;;;;4945444;28;20495;-88
2022/07/23 02:11:02;;;;;;;14.38;3.65;;;;;;;;;;4943589;28;20020;-88
2022/07/23 02:13:29;;;;;;;5.80;3.03;;;;;;;;;;4945918;28;20036;-87
2022/07/23 02:15:55;;;;;;;11.02;4.15;;;;;;;;;;4933475;29;20027;-88
2022/07/23 02:18:21;;;;;;;7.90;3.08;;;;;;;;;;4946345;28;20027;-88
2022/07/23 02:20:47;;;;;;;9.48;3.67;;;;;;;;;;4931384;29;20028;-88
2022/07/23 02:23:13;;;;;;;9.02;3.58;;;;;;;;;;4934025;29;20038;-88
2022/07/23 02:25:42;;;;;;;6.65;3.03;;;;;;;;;;4947696;28;20407;-87
2022/07/23 02:28:08;;;;;;;6.80;3.17;;;;;;;;;;4938132;28;20593;-87
2022/07/23 02:30:34;;;;;;;4.90;3.20;;;;;;;;;;4944550;28;20049;-87
2022/07/23 02:33:00;;;;;;;5.80;3.15;;;;;;;;;;4916180;29;20031;-88
2022/07/23 02:35:26;;;;;;;10.27;3.90;;;;;;;;;;4929874;29;20034;-88
2022/07/23 02:37:52;;;;;;;9.90;3.30;;;;;;;;;;4916473;29;20035;-88
2022/07/23 02:40:19;;;;;;;7.22;3.35;;;;;;;;;;4942691;28;20035;-88
2022/07/23 02:42:45;;;;;;;7.70;3.30;;;;;;;;;;4918143;29;20499;-88
2022/07/23 02:45:11;;;;;;;7.63;2.85;;;;;;;;;;4928829;29;20066;-88
2022/07/23 02:47:37;;;;;;;8.27;3.17;;;;;;;;;;4932374;29;20499;-88
2022/07/23 02:50:05;;;;;;;8.20;3.33;;;;;;;;;;4930753;29;20439;-88
2022/07/23 02:52:31;;;;;;;10.35;3.10;;;;;;;;;;4944038;28;20485;-88
2022/07/23 02:54:57;;;;;;;5.10;3.15;;;;;;;;;;4917597;29;20046;-87
2022/07/23 02:57:23;;;;;;;11.27;3.58;;;;;;;;;;4930009;29;20031;-87
2022/07/23 02:59:49;;;;;;;12.85;3.45;;;;;;;;;;4932750;28;20036;-87
2022/07/23 03:02:15;;;;;;;9.90;3.10;;;;;;;;;;4941489;28;20157;-88
2022/07/23 03:04:42;;;;;;;11.10;4.25;;;;;;;;;;4943021;28;20031;-87
2022/07/23 03:07:08;;;;;;;5.88;3.30;;;;;;;;;;4942048;28;20117;-87
2022/07/23 03:09:34;;;;;;;6.30;3.53;;;;;;;;;;4943795;28;20556;-88
2022/07/23 03:12:00;;;;;;;8.57;2.85;;;;;;;;;;4935162;29;20050;-88
2022/07/23 03:14:27;;;;;;;6.53;3.30;;;;;;;;;;4943757;28;20048;-88
2022/07/23 03:16:54;;;;;;;16.08;3.33;;;;;;;;;;4930992;29;20486;-88
2022/07/23 03:19:20;;;;;;;5.40;3.33;;;;;;;;;;4944558;28;20031;-88
2022/07/23 03:21:46;;;;;;;13.60;2.83;;;;;;;;;;4941474;28;20127;-89
2022/07/23 03:24:12;;;;;;;5.93;2.75;;;;;;;;;;4939849;28;20095;-88
2022/07/23 03:26:41;;;;;;;8.60;2.92;;;;;;;;;;4942777;28;20082;-88
2022/07/23 03:29:07;;;;;;;6.68;2.83;;;;;;;;;;4929064;29;20606;-89
2022/07/23 03:31:33;;;;;;;18.15;2.83;;;;;;;;;;4928311;29;20031;-88
2022/07/23 03:33:59;;;;;;;15.63;3.15;;;;;;;;;;4928755;29;20075;-88
2022/07/23 03:36:25;;;;;;;7.85;2.67;;;;;;;;;;4912552;29;20067;-88
2022/07/23 03:38:51;;;;;;;9.52;2.50;;;;;;;;;;4940048;28;20063;-88
2022/07/23 03:41:18;;;;;;;9.88;2.83;;;;;;;;;;4911335;29;20127;-88
2022/07/23 03:43:44;;;;;;;4.95;2.30;;;;;;;;;;4941707;28;20043;-88
2022/07/23 03:46:10;;;;;;;6.00;2.42;;;;;;;;;;4942032;28;20391;-88
2022/07/23 03:48:36;;;;;;;8.68;2.85;;;;;;;;;;4927869;29;20119;-88
2022/07/23 03:51:03;;;;;;;8.85;2.65;;;;;;;;;;4928485;29;20110;-88
2022/07/23 03:53:29;;;;;;;13.35;2.65;;;;;;;;;;4924020;29;20634;-88
2022/07/23 03:55:55;;;;;;;6.20;2.63;;;;;;;;;;4932174;29;20019;-88
2022/07/23 03:58:21;;;;;;;8.88;2.88;;;;;;;;;;4940915;28;20043;-87
2022/07/23 04:00:47;;;;;;;10.98;2.85;;;;;;;;;;4941415;28;20031;-87
2022/07/23 04:03:20;;;;;;;5.78;3.35;;;;;;;;;;4914796;29;20368;-87
2022/07/23 04:05:46;;;;;;;8.07;2.63;;;;;;;;;;4903922;29;20042;-87
2022/07/23 04:08:12;;;;;;;5.60;2.47;;;;;;;;;;4926951;29;20031;-88
2022/07/23 04:10:38;;;;;;;7.13;2.67;;;;;;;;;;4943642;28;20026;-87
2022/07/23 04:13:04;;;;;;;5.95;2.40;;;;;;;;;;4908904;29;20028;-87
2022/07/23 04:15:30;;;;;;;12.30;2.50;;;;;;;;;;4940460;28;20074;-87
2022/07/23 04:17:56;;;;;;;4.10;2.60;;;;;;;;;;4940405;28;20036;-87
2022/07/23 04:20:22;;;;;;;7.82;2.60;;;;;;;;;;4940271;28;20118;-87
2022/07/23 04:22:48;;;;;;;6.07;2.50;;;;;;;;;;4926489;29;20086;-87
2022/07/23 04:25:16;;;;;;;6.05;2.30;;;;;;;;;;4929269;29;20036;-87
2022/07/23 04:27:42;;;;;;;3.20;2.05;;;;;;;;;;4929211;29;20023;-87
2022/07/23 04:30:09;;;;;;;6.25;2.95;;;;;;;;;;4926495;29;20123;-87
2022/07/23 04:32:35;;;;;;;5.90;2.58;;;;;;;;;;4944968;28;20032;-88
2022/07/23 04:35:02;;;;;;;5.55;2.70;;;;;;;;;;4932641;29;20036;-88
2022/07/23 04:37:28;;;;;;;13.07;2.47;;;;;;;;;;4948619;28;20082;-88
2022/07/23 04:39:54;;;;;;;8.25;2.65;;;;;;;;;;4944283;28;20067;-88
2022/07/23 04:42:20;;;;;;;7.43;2.63;;;;;;;;;;4932284;29;20071;-88
2022/07/23 04:44:52;;;;;;;3.72;2.67;;;;;;;;;;4944552;28;20038;-88
2022/07/23 04:47:18;;;;;;;5.57;2.95;;;;;;;;;;4911812;29;20032;-87
2022/07/23 04:49:44;;;;;;;9.10;2.70;;;;;;;;;;4933944;29;20034;-88
2022/07/23 04:52:10;;;;;;;5.43;2.90;;;;;;;;;;4941391;28;20110;-88
2022/07/23 04:54:36;;;;;;;4.35;2.90;;;;;;;;;;4932043;29;20023;-88
2022/07/23 04:57:02;;;;;;;7.97;3.00;;;;;;;;;;4945075;28;20062;-88
2022/07/23 04:59:28;;;;;;;8.57;3.72;;;;;;;;;;4944063;28;20067;-88
2022/07/23 05:01:54;;;;;;;10.45;2.45;;;;;;;;;;4941876;28;20403;-88
2022/07/23 05:04:20;;;;;;;5.93;3.47;;;;;;;;;;4942834;28;20052;-89
2022/07/23 05:06:46;;;;;;;9.85;4.28;;;;;;;;;;4925692;29;20032;-88
2022/07/23 05:09:12;;;;;;;4.65;2.80;;;;;;;;;;4910628;29;20060;-89
2022/07/23 05:11:38;;;;;;;5.68;3.38;;;;;;;;;;4945935;28;20039;-88
2022/07/23 05:14:04;;;;;;;8.93;2.88;;;;;;;;;;4919103;28;20734;-88
2022/07/23 05:16:30;;;;;;;12.82;3.65;;;;;;;;;;4913620;29;20083;-88
2022/07/23 05:18:56;;;;;;;8.05;2.67;;;;;;;;;;4943407;28;20074;-88
2022/07/23 05:21:22;;;;;;;5.75;2.67;;;;;;;;;;4929341;29;20043;-88
2022/07/23 05:23:48;;;;;;;8.30;3.15;;;;;;;;;;4930418;29;20584;-88
2022/07/23 05:26:14;;;;;;;4.97;2.60;;;;;;;;;;4916122;29;20044;-89
2022/07/23 05:28:40;;;;;;;5.72;2.65;;;;;;;;;;4936327;29;20172;-88
2022/07/23 05:31:06;;;;;;;4.15;2.67;;;;;;;;;;4947845;28;20725;-89
2022/07/23 05:33:32;;;;;;;8.23;2.90;;;;;;;;;;4950104;28;20074;-89
2022/07/23 05:36:02;;;;;;;8.52;2.60;;;;;;;;;;4928540;29;20403;-88
2022/07/23 05:38:28;;;;;;;5.45;2.92;;;;;;;;;;4928404;29;20042;-88
2022/07/23 05:40:54;;;;;;;4.55;3.00;;;;;;;;;;4912971;29;20039;-88
2022/07/23 05:43:20;;;;;;;8.10;3.08;;;;;;;;;;4929529;29;20058;-88
2022/07/23 05:45:46;;;;;;;9.23;3.60;;;;;;;;;;4946033;28;20036;-88
2022/07/23 05:48:12;;;;;;;7.88;3.30;;;;;;;;;;4940308;28;20035;-88
2022/07/23 05:50:38;;;;;;;5.60;2.80;;;;;;;;;;4910334;29;20063;-88
2022/07/23 05:53:04;;;;;;;7.68;2.85;;;;;;;;;;4945186;28;20036;-87
2022/07/23 05:55:31;;;;;;;5.38;3.03;;;;;;;;;;4914169;29;20400;-87
2022/07/23 05:57:57;;;;;;;8.18;3.33;;;;;;;;;;4944055;28;20036;-88
2022/07/23 06:00:24;;;;;;;4.22;2.65;;;;;;;;;;4929177;29;20120;-88
2022/07/23 06:02:50;;;;;;;4.95;2.42;;;;;;;;;;4947236;28;20567;-88
2022/07/23 06:05:16;;;;;;;7.15;2.50;;;;;;;;;;4930090;29;20065;-88
2022/07/23 06:07:42;;;;;;;6.70;3.08;;;;;;;;;;4943961;28;20040;-88
2022/07/23 06:10:08;;;;;;;4.03;2.20;;;;;;;;;;4912913;29;20128;-88
2022/07/23 06:12:34;;;;;;;7.95;2.70;;;;;;;;;;4945332;28;20047;-88
2022/07/23 06:15:00;;;;;;;8.85;2.60;;;;;;;;;;4927751;29;20063;-88
2022/07/23 06:17:27;;;;;;;6.38;2.35;;;;;;;;;;4943667;28;20635;-89
2022/07/23 06:19:53;;;;;;;8.52;2.90;;;;;;;;;;4926875;29;20448;-89
2022/07/23 06:22:19;;;;;;;7.32;2.47;;;;;;;;;;4940932;28;20032;-90
2022/07/23 06:24:45;;;;;;;4.80;1.70;;;;;;;;;;4926864;29;20091;-89
2022/07/23 06:27:11;;;;;;;7.57;2.65;;;;;;;;;;4946281;28;20024;-89
2022/07/23 06:29:37;;;;;;;6.45;1.90;;;;;;;;;;4912921;29;20762;-89
2022/07/23 06:32:04;;;;;;;8.75;1.75;;;;;;;;;;4941393;28;20029;-87
2022/07/23 06:34:29;;;;;;;3.63;1.67;;;;;;;;;;4914814;29;20036;-88
2022/07/23 06:36:56;;;;;;;3.85;1.63;;;;;;;;;;4938266;28;20588;-87
2022/07/23 06:39:22;;;;;;;6.45;1.55;;;;;;;;;;4944702;28;20038;-88
2022/07/23 06:41:48;;;;;;;5.05;1.48;;;;;;;;;;4947068;28;20027;-88
2022/07/23 06:44:14;;;;;;;3.38;1.38;;;;;;;;;;4930441;29;20032;-88
2022/07/23 06:46:40;;;;;;;2.75;1.45;;;;;;;;;;4945765;28;20032;-88
2022/07/23 06:49:06;;;;;;;3.00;1.25;;;;;;;;;;4940542;28;20468;-88
2022/07/23 06:51:32;;;;;;;3.35;1.27;;;;;;;;;;4940945;28;20059;-88
2022/07/23 06:53:58;;;;;;;1.45;1.20;;;;;;;;;;4947187;28;20063;-88
2022/07/23 06:56:24;;;;;;;2.28;1.38;;;;;;;;;;4947443;28;20036;-88
2022/07/23 06:58:50;;;;;;;1.42;1.20;;;;;;;;;;4916639;29;20042;-88
2022/07/23 07:01:17;;;;;;;5.05;1.98;;;;;;;;;;4931422;29;20118;-88
2022/07/23 07:03:43;;;;;;;3.97;1.73;;;;;;;;;;4946515;28;20094;-88
2022/07/23 07:06:09;;;;;;;1.95;1.35;;;;;;;;;;4938415;28;20051;-88
2022/07/23 07:08:35;;;;;;;2.72;1.40;;;;;;;;;;4941571;28;21945;-88
2022/07/23 07:11:01;;;;;;;5.05;2.45;;;;;;;;;;4942552;28;20555;-89
2022/07/23 07:13:27;;;;;;;2.58;1.70;;;;;;;;;;4942717;28;20035;-88
2022/07/23 07:15:53;;;;;;;3.35;1.40;;;;;;;;;;4888254;28;20501;-88
2022/07/23 07:18:19;;;;;;;9.07;1.80;;;;;;;;;;4890684;29;20924;-87
2022/07/23 07:20:45;;;;;;;9.65;1.58;;;;;;;;;;4889460;29;20080;-88
2022/07/23 07:23:11;;;;;;;1.40;1.13;;;;;;;;;;4895472;29;20032;-88
2022/07/23 07:25:37;;;;;;;4.78;1.80;;;;;;;;;;4890738;29;20051;-88
2022/07/23 07:28:03;;;;;;;4.65;3.15;;;;;;;;;;4887741;29;20056;-88
2022/07/23 07:30:29;;;;;;;4.65;1.90;;;;;;;;;;4892132;29;20400;-88
2022/07/23 07:32:55;;;;;;;3.25;1.45;;;;;;;;;;4885782;29;20944;-88
2022/07/23 07:35:21;;;;;;;1.83;1.30;;;;;;;;;;4884618;29;20041;-88
2022/07/23 07:37:47;;;;;;;0.93;0.77;;;;;;;;;;4890209;29;20048;-89
2022/07/23 07:40:13;;;;;;;2.20;1.40;;;;;;;;;;4885715;29;20037;-88
2022/07/23 07:42:49;;;;;;;3.33;1.60;;;;;;;;;;4887154;29;20119;-89
2022/07/23 07:45:15;;;;;;;3.15;1.10;;;;;;;;;;4890396;29;20044;-89
2022/07/23 07:47:41;;;;;;;1.40;0.95;;;;;;;;;;4888737;29;20397;-88
2022/07/23 07:50:08;;;;;;;4.22;1.08;;;;;;;;;;4900341;29;20127;-88
2022/07/23 07:52:36;;;;;;;2.15;0.90;;;;;;;;;;4903516;29;20140;-88
2022/07/23 07:55:02;;;;;;;1.60;0.50;;;;;;;;;;4900514;29;20432;-89
2022/07/23 07:57:28;;;;;;;2.72;0.82;;;;;;;;;;4900428;29;20115;-88
2022/07/23 07:59:54;;;;;;;1.20;0.70;;;;;;;;;;4903462;29;20040;-89
2022/07/23 08:02:20;;;;;;;2.35;0.63;;;;;;;;;;4888302;29;20492;-89
2022/07/23 08:04:48;;;;;;;1.15;0.70;;;;;;;;;;4886333;29;20028;-88
2022/07/23 08:07:14;;;;;;;1.55;0.82;;;;;;;;;;4886652;29;20024;-88
2022/07/23 08:09:40;;;;;;;2.47;0.75;;;;;;;;;;4881160;29;20041;-88
2022/07/23 08:12:06;;;;;;;0.50;0.50;;;;;;;;;;4903119;29;20585;-87
2022/07/23 08:14:32;;;;;;;1.13;1.00;;;;;;;;;;4895142;29;20055;-88
2022/07/23 08:16:58;;;;;;;2.65;0.82;;;;;;;;;;4936787;28;20035;-88
2022/07/23 08:19:24;;;;;;;1.63;0.73;;;;;;;;;;4939775;28;20110;-89
2022/07/23 08:21:50;;;;;;;1.02;0.43;;;;;;;;;;4944307;28;20035;-88
2022/07/23 08:24:16;;;;;;;1.55;0.50;;;;;;;;;;4926264;29;20849;-90
2022/07/23 08:26:42;;;;;;;1.05;0.60;;;;;;;;;;4944146;28;20039;-89
2022/07/23 08:29:09;;;;;;;1.95;0.60;;;;;;;;;;4911811;29;20032;-88
2022/07/23 08:31:35;;;;;;;0.55;0.43;;;;;;;;;;4945137;28;20030;-89
2022/07/23 08:34:02;;;;;;;2.53;0.90;;;;;;;;;;4929571;29;20130;-89
2022/07/23 08:36:31;;;;;;;0.80;0.50;;;;;;;;;;4945899;28;20046;-89
2022/07/23 08:38:57;;;;;;;0.55;0.55;;;;;;;;;;4926362;29;20027;-90
2022/07/23 08:41:23;;;;;;;1.50;0.80;;;;;;;;;;4928229;29;20577;-89
2022/07/23 08:43:50;;;;;;;6.20;0.90;;;;;;;;;;4948711;28;20094;-89
2022/07/23 08:46:17;;;;;;;1.27;0.57;;;;;;;;;;4946851;28;20439;-89
2022/07/23 08:48:43;;;;;;;2.17;0.70;;;;;;;;;;4951996;28;20031;-89
2022/07/23 08:51:10;;;;;;;1.52;0.55;;;;;;;;;;4948580;28;20024;-89
2022/07/23 08:53:37;;;;;;;4.07;1.00;;;;;;;;;;4932995;29;20024;-88
2022/07/23 08:56:04;;;;;;;0.50;0.50;;;;;;;;;;4947794;28;20498;-89
2022/07/23 08:58:31;;;;;;;4.32;0.90;;;;;;;;;;4948040;28;20048;-89
2022/07/23 09:00:57;;;;;;;1.45;0.75;;;;;;;;;;4943565;28;20039;-89
2022/07/23 09:03:24;;;;;;;2.85;0.85;;;;;;;;;;4951736;28;20079;-89
2022/07/23 09:05:51;;;;;;;2.50;1.10;;;;;;;;;;4939029;29;20052;-88
2022/07/23 09:08:19;;;;;;;1.13;0.60;;;;;;;;;;4948794;28;20392;-89
2022/07/23 09:10:47;;;;;;;1.30;0.70;;;;;;;;;;4951211;28;20024;-88
2022/07/23 09:13:27;;;;;;;0.77;0.77;;;;;;;;;;4934508;29;20092;-88
2022/07/23 09:15:53;;;;;;;2.78;1.00;;;;;;;;;;4944469;28;20802;-88
2022/07/23 09:18:19;;;;;;;8.32;1.20;;;;;;;;;;4912162;29;20492;-88
2022/07/23 09:20:45;;;;;;;4.85;0.70;;;;;;;;;;4915875;29;20042;-88
2022/07/23 09:23:11;;;;;;;1.10;0.70;;;;;;;;;;4902480;29;21028;-89
2022/07/23 09:25:37;;;;;;;2.53;1.00;;;;;;;;;;4909197;29;20051;-88
2022/07/23 09:28:06;;;;;;;1.45;0.70;;;;;;;;;;4912920;29;20028;-89
2022/07/23 09:30:36;;;;;;;2.28;1.40;;;;;;;;;;4914300;29;20068;-88
2022/07/23 09:33:15;;;;;;;1.55;0.98;;;;;;;;;;4910429;29;20047;-88
2022/07/23 09:35:51;;;;;;;2.47;1.00;;;;;;;;;;4913312;29;20820;-88
2022/07/23 09:38:17;;;;;;;2.47;0.75;;;;;;;;;;4927026;29;20111;-88
2022/07/23 09:40:45;;;;;;;2.85;1.00;;;;;;;;;;4941847;28;20536;-89
2022/07/23 09:43:11;;;;;;;2.15;0.50;;;;;;;;;;4944494;28;20492;-89
2022/07/23 09:45:39;;;;;;;2.05;0.95;;;;;;;;;;4940302;28;20032;-89
2022/07/23 09:48:17;;;;;;;3.65;1.02;;;;;;;;;;4944528;28;20488;-88
2022/07/23 09:50:44;;;;;;;4.10;0.70;;;;;;;;;;4940933;28;20042;-89
2022/07/23 09:53:10;;;;;;;4.03;0.95;;;;;;;;;;4925240;29;20071;-89
2022/07/23 09:55:38;;;;;;;2.00;0.70;;;;;;;;;;4930433;29;20495;-89
2022/07/23 09:58:14;;;;;;;1.23;0.60;;;;;;;;;;4945026;28;20103;-89
2022/07/23 10:00:41;;;;;;;2.22;0.80;;;;;;;;;;4944559;28;20090;-90
2022/07/23 10:03:07;;;;;;;2.58;1.67;;;;;;;;;;4944080;28;20062;-89
2022/07/23 10:05:34;;;;;;;2.05;1.10;;;;;;;;;;4931957;29;20103;-88
2022/07/23 10:08:02;;;;;;;0.85;0.70;;;;;;;;;;4922264;29;20895;-89
2022/07/23 10:10:29;;;;;;;4.10;0.88;;;;;;;;;;4942814;28;20031;-88
2022/07/23 10:15:48;;;;;;;5.18;1.02;;;;;;;;;;4654662;29;8074780;-87
2022/07/23 10:18:14;;;;;;;3.17;1.25;;;;;;;;;;4931872;29;20027;-88
2022/07/23 10:20:41;;;;;;;3.67;2.35;;;;;;;;;;4930077;29;20050;-88
2022/07/23 10:23:16;;;;;;;1.98;1.00;;;;;;;;;;4928761;29;20028;-88
2022/07/23 10:26:01;;;;;;;1.48;0.88;;;;;;;;;;4942296;28;20056;-88
2022/07/23 10:28:45;;;;;;;5.00;0.90;;;;;;;;;;4928829;29;20044;-87
2022/07/23 10:31:30;;;;;;;2.30;0.90;;;;;;;;;;4929269;29;20051;-88
2022/07/23 10:34:12;;;;;;;1.60;1.00;;;;;;;;;;4924544;29;20032;-88
2022/07/23 10:36:45;;;;;;;5.15;1.20;;;;;;;;;;4913095;29;20114;-88
2022/07/23 10:39:15;;;;;;;4.00;1.05;;;;;;;;;;4927636;29;20039;-87
2022/07/23 10:41:42;;;;;;;1.38;1.17;;;;;;;;;;4938867;28;20039;-88
2022/07/23 10:44:09;;;;;;;2.55;0.95;;;;;;;;;;4930112;29;20381;-88
2022/07/23 10:46:51;;;;;;;1.13;1.02;;;;;;;;;;4914635;29;20530;-87
2022/07/23 10:49:24;;;;;;;6.82;1.05;;;;;;;;;;4929524;29;20024;-88
2022/07/23 10:52:09;;;;;;;7.03;1.40;;;;;;;;;;4939674;28;20032;-85
2022/07/23 10:54:35;;;;;;;8.35;1.40;;;;;;;;;;4929334;29;20023;-85
2022/07/23 10:57:01;;;;;;;2.83;0.98;;;;;;;;;;4942193;28;20452;-85
2022/07/23 10:59:27;;;;;;;5.05;1.13;;;;;;;;;;4942950;28;20044;-86
2022/07/23 11:01:53;;;;;;;2.33;1.30;;;;;;;;;;4922990;29;20170;-86
2022/07/23 11:04:19;;;;;;;2.05;1.30;;;;;;;;;;4946302;28;20039;-86
2022/07/23 11:07:12;;;;;;;4.53;1.02;;;;;;;;;;4929213;29;20503;-86
2022/07/23 11:09:42;;;;;;;6.32;1.10;;;;;;;;;;4906759;29;20046;-86
2022/07/23 11:12:15;;;;;;;2.83;1.30;;;;;;;;;;4928145;29;20028;-86
2022/07/23 11:15:06;;;;;;;1.77;1.10;;;;;;;;;;4928929;29;20040;-85
2022/07/23 11:17:36;;;;;;;4.25;1.30;;;;;;;;;;4927667;29;20066;-86
2022/07/23 11:20:13;;;;;;;4.03;1.60;;;;;;;;;;4925348;29;20590;-85
2022/07/23 11:22:39;;;;;;;6.22;1.50;;;;;;;;;;4944231;28;20074;-85
2022/07/23 11:25:06;;;;;;;3.72;1.20;;;;;;;;;;4936743;28;20138;-84
2022/07/23 11:27:42;;;;;;;3.53;1.42;;;;;;;;;;4940271;28;20118;-86
2022/07/23 11:30:09;;;;;;;2.95;1.20;;;;;;;;;;4928741;29;20050;-85
2022/07/23 11:32:38;;;;;;;2.55;1.30;;;;;;;;;;4932211;29;20965;-85
2022/07/23 11:35:19;;;;;;;3.75;1.50;;;;;;;;;;4927147;29;20796;-85
2022/07/23 11:37:46;;;;;;;3.33;1.52;;;;;;;;;;4938871;28;20044;-86
2022/07/23 11:40:13;;;;;;;4.72;1.63;;;;;;;;;;4926412;29;20403;-86
2022/07/23 11:42:39;;;;;;;5.05;1.30;;;;;;;;;;4942408;28;20043;-86
2022/07/23 11:45:07;;;;;;;3.75;1.15;;;;;;;;;;4942606;28;20043;-86
2022/07/23 11:47:33;;;;;;;4.60;1.80;;;;;;;;;;4943018;28;20047;-87
2022/07/23 11:50:00;;;;;;;2.75;1.75;;;;;;;;;;4928244;29;20127;-87
2022/07/23 11:52:28;;;;;;;4.75;1.75;;;;;;;;;;4943556;28;20172;-87
2022/07/23 11:54:55;;;;;;;7.22;1.30;;;;;;;;;;4941083;28;20035;-88
2022/07/23 11:57:24;;;;;;;4.78;1.60;;;;;;;;;;4915007;29;20043;-87
2022/07/23 11:59:52;;;;;;;5.90;1.30;;;;;;;;;;4941738;28;20035;-90
2022/07/23 12:02:20;;;;;;;4.30;1.30;;;;;;;;;;4944034;28;20044;-87
2022/07/23 12:04:47;;;;;;;4.80;1.40;;;;;;;;;;4929707;29;20031;-88
2022/07/23 12:07:44;;;;;;;2.85;1.23;;;;;;;;;;4941859;28;20039;-88
2022/07/23 12:10:10;;;;;;;;;;;;;;;;;;4905614;29;20661;-87
2022/07/23 12:12:37;;;;;;;1.55;1.10;;;;;;;;;;4931216;29;19958;-87
2022/07/23 12:15:04;;;;;;;4.53;0.93;;;;;;;;;;4940672;28;20043;-87
2022/07/23 12:17:31;;;;;;;0.93;0.82;;;;;;;;;;4938532;28;20040;-87
2022/07/23 12:20:02;;;;;;;2.75;1.08;;;;;;;;;;4939206;28;20578;-87
2022/07/23 12:22:34;;;;;;;2.20;1.10;;;;;;;;;;4940159;28;20047;-85
2022/07/23 12:25:04;;;;;;;3.50;1.10;;;;;;;;;;4929044;29;20040;-85
2022/07/23 12:27:30;;;;;;;3.88;1.45;;;;;;;;;;4929021;29;20034;-86
2022/07/23 12:29:56;;;;;;;3.03;1.25;;;;;;;;;;4927410;29;20032;-86
2022/07/23 12:32:27;;;;;;;1.98;1.25;;;;;;;;;;4930000;29;20071;-86
2022/07/23 12:35:06;;;;;;;3.25;1.17;;;;;;;;;;4942286;28;20051;-86
2022/07/23 12:37:33;;;;;;;1.70;1.02;;;;;;;;;;4907638;29;20126;-85
2022/07/23 12:40:18;;;;;;;4.65;1.00;;;;;;;;;;4938521;28;20031;-85
2022/07/23 12:42:45;;;;;;;5.00;1.20;;;;;;;;;;4923707;29;20468;-86
2022/07/23 12:45:11;;;;;;;5.38;1.38;;;;;;;;;;4942494;28;20023;-85
2022/07/23 12:47:55;;;;;;;6.88;1.50;;;;;;;;;;4940942;28;20040;-85
2022/07/23 12:50:51;;;;;;;1.60;1.27;;;;;;;;;;4925170;29;20157;-85
2022/07/23 12:53:25;;;;;;;2.80;1.27;;;;;;;;;;4913953;29;20055;-87
2022/07/23 12:55:58;;;;;;;1.65;1.05;;;;;;;;;;4912519;29;20028;-87
2022/07/23 12:58:24;;;;;;;2.58;1.00;;;;;;;;;;4940567;28;20040;-87
2022/07/23 13:00:59;;;;;;;4.45;1.13;;;;;;;;;;4937845;28;20091;-87
2022/07/23 13:03:29;;;;;;;5.05;2.03;;;;;;;;;;4939510;28;20498;-87
2022/07/23 13:05:56;;;;;;;1.33;1.13;;;;;;;;;;4940776;28;20035;-87
2022/07/23 13:08:22;;;;;;;3.50;1.23;;;;;;;;;;4929641;29;20040;-88
2022/07/23 13:10:50;;;;;;;2.42;1.60;;;;;;;;;;4925910;29;20028;-88
2022/07/23 13:13:17;;;;;;;2.65;1.02;;;;;;;;;;4926112;28;20047;-87
2022/07/23 13:15:46;;;;;;;2.72;1.52;;;;;;;;;;4937478;28;20043;-88
2022/07/23 13:18:12;;;;;;;2.70;1.23;;;;;;;;;;4927158;28;20044;-88
2022/07/23 13:20:39;;;;;;;3.90;0.93;;;;;;;;;;4927744;29;20695;-88
2022/07/23 13:23:08;;;;;;;1.23;0.80;;;;;;;;;;4934185;28;21667;-88
2022/07/23 13:25:34;;;;;;;4.60;1.27;;;;;;;;;;4940170;28;20040;-88
2022/07/23 13:28:00;;;;;;;2.35;1.55;;;;;;;;;;4941981;28;20044;-88
2022/07/23 13:30:27;;;;;;;2.85;1.33;;;;;;;;;;4928421;29;20035;-88
2022/07/23 13:32:53;;;;;;;2.05;1.20;;;;;;;;;;4931533;29;20478;-88
2022/07/23 13:35:19;;;;;;;3.42;1.00;;;;;;;;;;4941809;28;20027;-88
2022/07/23 13:37:45;;;;;;;1.23;1.10;;;;;;;;;;4947665;28;20177;-88
2022/07/23 13:40:11;;;;;;;2.08;1.27;;;;;;;;;;4947249;28;20074;-88
2022/07/23 13:42:37;;;;;;;2.22;1.08;;;;;;;;;;4943796;28;20071;-88
2022/07/23 13:45:06;;;;;;;1.73;0.93;;;;;;;;;;4932409;29;20542;-88
2022/07/23 13:47:32;;;;;;;1.52;1.10;;;;;;;;;;4940449;28;20086;-89
2022/07/23 13:49:59;;;;;;;1.15;0.80;;;;;;;;;;4930801;29;20551;-88
2022/07/23 13:52:25;;;;;;;2.42;1.10;;;;;;;;;;4918216;29;20501;-88
2022/07/23 13:54:51;;;;;;;45.72;2.47;;;;;;;;;;4932523;29;20498;-87
2022/07/23 13:57:17;;;;;;;2.95;1.10;;;;;;;;;;4940205;28;20378;-88
2022/07/23 13:59:43;;;;;;;3.35;1.65;;;;;;;;;;4948141;28;20039;-92
2022/07/23 14:02:09;;;;;;;1.35;0.90;;;;;;;;;;4934143;29;20396;-92
2022/07/23 14:04:35;;;;;;;2.35;1.00;;;;;;;;;;4936245;29;20542;-93
2022/07/23 14:07:03;;;;;;;4.47;1.15;;;;;;;;;;4915115;29;20044;-92
2022/07/23 14:09:29;;;;;;;2.67;1.40;;;;;;;;;;4952770;28;20066;-93
2022/07/23 14:11:58;;;;;;;1.98;1.10;;;;;;;;;;4942251;28;20101;-93
2022/07/23 14:14:24;;;;;;;3.97;1.10;;;;;;;;;;4949132;28;20035;-91
2022/07/23 14:16:50;;;;;;;1.67;1.13;;;;;;;;;;4950618;28;20115;-91
2022/07/23 14:19:18;;;;;;;2.17;1.10;;;;;;;;;;4950105;28;20052;-92
2022/07/23 14:21:48;;;;;;;2.60;1.10;;;;;;;;;;4940030;29;20077;-92
2022/07/23 14:24:16;;;;;;;4.53;1.17;;;;;;;;;;4940823;29;20046;-91
2022/07/23 14:26:43;;;;;;;3.72;1.35;;;;;;;;;;4952084;28;20047;-92
2022/07/23 14:29:09;;;;;;;4.57;1.17;;;;;;;;;;4946740;28;20048;-91
2022/07/23 14:31:46;;;;;;;2.35;1.00;;;;;;;;;;4928392;29;20043;-95
2022/07/23 14:34:12;;;;;;;3.13;1.20;;;;;;;;;;4953353;29;20061;-92
2022/07/23 14:36:41;;;;;;;2.35;1.27;;;;;;;;;;4945843;28;20114;-92
2022/07/23 14:39:16;;;;;;;4.68;1.48;;;;;;;;;;4929920;29;20476;-91
2022/07/23 14:41:43;;;;;;;1.88;0.85;;;;;;;;;;4943843;28;20558;-90
2022/07/23 14:44:09;;;;;;;3.95;1.00;;;;;;;;;;4927977;29;20110;-92
2022/07/23 14:46:35;;;;;;;1.88;0.90;;;;;;;;;;4945589;28;20072;-91
2022/07/23 14:49:01;;;;;;;2.85;1.25;;;;;;;;;;4941306;28;20551;-91